KEGV

Eagle River Union Airport

Eagle River, Wisconsin, USA
METAR KEGV 250115Z AUTO 33018G28KT 1 3/4SM +RA SCT009 BKN018 OVC050 18/16 A2999 RMK AO2 P0028 T01800162
Observed Flight Rules
May-25 @ 01:15 UTC (6 minutes ago) Instrument Flight Rules
Wind Visibility Clouds Conditions
330° at 18 knots
 Gusting to 28 knots
1 3/4 miles
  • Scattered at 900' AGL
  • Broken at 1,800' AGL
  • Overcast at 5,000' AGL
  • Heavy Rain
Temperatures Readings Precipitation
Current 18°C / 64°F
Dewpoint 16°C / 61°F
Humidity 88%
Altimeter 29.99" Hg
Pressure 1016 hPa
Elevation 500
Current Rain 0.28
METAR KEGV 250115Z AUTO 33018G28KT 1 3/4SM +RA SCT009 BKN018 OVC050 18/16 A2999 RMK AO2 P0028 T01800162
Observed Flight Rules
May-25 @ 01:15 UTC
(6 minutes ago)
IFR
Wind Visibility
330° at 18 knots
 Gusting to 28 knots
1 3/4 miles
Clouds
  • Scattered at 900' AGL
  • Broken at 1,800' AGL
  • Overcast at 5,000' AGL
Conditions
  • Heavy Rain
Temperature Dewpoint
18°C / 64°F 16°C / 61°F
Humidity Altimeter Pressure
88% 29.99" Hg 1016 hPa
Current Rain
0.28